createdAt,value
2022-10-06T00:00:32.768Z,102290.00
2022-10-06T00:02:59.279Z,102308.00
2022-10-06T00:05:26.132Z,102308.00
2022-10-06T00:07:52.595Z,102313.00
2022-10-06T00:10:19.026Z,102317.00
2022-10-06T00:12:46.760Z,102310.00
2022-10-06T00:15:14.446Z,102325.00
2022-10-06T00:17:41.519Z,102329.00
2022-10-06T00:20:09.091Z,102334.00
2022-10-06T00:22:40.122Z,102347.00
2022-10-06T00:25:07.018Z,102347.00
2022-10-06T00:27:34.141Z,102354.00
2022-10-06T00:30:00.536Z,102350.00
2022-10-06T00:32:26.982Z,102367.00
2022-10-06T00:34:54.046Z,102353.00
2022-10-06T00:37:20.467Z,102362.00
2022-10-06T00:39:46.915Z,102361.00
2022-10-06T00:42:22.104Z,102370.00
2022-10-06T00:44:49.162Z,102373.00
2022-10-06T00:47:15.696Z,102378.00
2022-10-06T00:49:43.752Z,102385.00
2022-10-06T00:52:11.742Z,102398.00
2022-10-06T00:54:38.783Z,102400.00
2022-10-06T00:57:05.503Z,102399.00
2022-10-06T00:59:32.241Z,102406.00
2022-10-06T01:02:09.172Z,102406.00
2022-10-06T01:04:36.945Z,102405.00
2022-10-06T01:07:03.644Z,102406.00
2022-10-06T01:09:30.873Z,102411.00
2022-10-06T01:11:59.707Z,102426.00
2022-10-06T01:14:26.678Z,102421.00
2022-10-06T01:16:59.598Z,102428.00
2022-10-06T01:19:29.071Z,102437.00
2022-10-06T01:21:57.319Z,102437.00
2022-10-06T01:24:23.749Z,102443.00
2022-10-06T01:26:51.862Z,102442.00
2022-10-06T01:29:18.802Z,102447.00
2022-10-06T01:31:45.286Z,102459.00
2022-10-06T01:34:11.823Z,102456.00
2022-10-06T01:36:39.616Z,102451.00
2022-10-06T01:39:05.994Z,102455.00
2022-10-06T01:41:34.023Z,102467.00
2022-10-06T01:44:00.621Z,102456.00
2022-10-06T01:46:28.651Z,102458.00
2022-10-06T01:48:55.493Z,102466.00
2022-10-06T01:51:21.864Z,102474.00
2022-10-06T01:53:48.308Z,102468.00
2022-10-06T01:56:14.761Z,102472.00
2022-10-06T01:58:41.206Z,102476.00
2022-10-06T02:01:08.282Z,102482.00
2022-10-06T02:03:35.623Z,102478.00
2022-10-06T02:06:02.329Z,102486.00
2022-10-06T02:08:29.072Z,102479.00
2022-10-06T02:10:55.847Z,102481.00
2022-10-06T02:13:25.835Z,102488.00
2022-10-06T02:15:55.380Z,102488.00
2022-10-06T02:18:21.844Z,102491.00
2022-10-06T02:20:48.275Z,102491.00
2022-10-06T02:23:14.699Z,102501.00
2022-10-06T02:25:41.120Z,102505.00
2022-10-06T02:28:07.601Z,102504.00
2022-10-06T02:30:34.648Z,102506.00
2022-10-06T02:33:01.084Z,102512.00
2022-10-06T02:35:27.917Z,102522.00
2022-10-06T02:37:54.349Z,102511.00
2022-10-06T02:40:20.799Z,102517.00
2022-10-06T02:42:47.906Z,102526.00
2022-10-06T02:45:14.418Z,102525.00
2022-10-06T02:47:41.471Z,102522.00
2022-10-06T02:50:08.141Z,102527.00
2022-10-06T02:52:35.703Z,102530.00
2022-10-06T02:55:04.213Z,102531.00
2022-10-06T02:57:30.933Z,102536.00
2022-10-06T02:59:57.381Z,102525.00
2022-10-06T03:02:23.942Z,102538.00
2022-10-06T03:04:50.500Z,102545.00
2022-10-06T03:07:17.013Z,102544.00
2022-10-06T03:09:43.393Z,102546.00
2022-10-06T03:12:09.837Z,102556.00
2022-10-06T03:14:36.306Z,102555.00
2022-10-06T03:17:02.805Z,102562.00
2022-10-06T03:19:29.258Z,102564.00
2022-10-06T03:21:55.641Z,102569.00
2022-10-06T03:24:22.141Z,102578.00
2022-10-06T03:26:48.581Z,102571.00
2022-10-06T03:29:16.356Z,102571.00
2022-10-06T03:31:43.429Z,102582.00
2022-10-06T03:34:10.122Z,102581.00
2022-10-06T03:36:36.985Z,102590.00
2022-10-06T03:39:04.357Z,102592.00
2022-10-06T03:41:32.090Z,102588.00
2022-10-06T03:43:59.111Z,102596.00
2022-10-06T03:46:27.160Z,102597.00
2022-10-06T03:48:53.848Z,102605.00
2022-10-06T03:51:21.999Z,102604.00
2022-10-06T03:53:50.077Z,102609.00
2022-10-06T03:56:18.075Z,102612.00
2022-10-06T03:58:55.219Z,102622.00
2022-10-06T04:01:26.196Z,102622.00
2022-10-06T04:03:54.271Z,102630.00
2022-10-06T04:06:20.863Z,102625.00
2022-10-06T04:08:48.455Z,102640.00
2022-10-06T04:11:16.224Z,102640.00
2022-10-06T04:13:43.289Z,102651.00
2022-10-06T04:16:13.826Z,102658.00
2022-10-06T04:18:40.945Z,102658.00
2022-10-06T04:21:07.559Z,102670.00
2022-10-06T04:23:34.751Z,102675.00
2022-10-06T04:26:01.330Z,102686.00
2022-10-06T04:28:28.104Z,102682.00
2022-10-06T04:30:58.918Z,102682.00
2022-10-06T04:33:25.520Z,102686.00
2022-10-06T04:36:02.241Z,102679.00
2022-10-06T04:38:29.950Z,102693.00
2022-10-06T04:40:57.462Z,102701.00
2022-10-06T04:43:24.879Z,102698.00
2022-10-06T04:45:58.915Z,102707.00
2022-10-06T04:48:26.922Z,102707.00
2022-10-06T04:50:54.698Z,102701.00
2022-10-06T04:53:21.127Z,102702.00
2022-10-06T04:55:47.569Z,102709.00
2022-10-06T04:58:14.011Z,102703.00
2022-10-06T05:00:41.115Z,102712.00
2022-10-06T05:03:07.603Z,102710.00
2022-10-06T05:05:34.047Z,102714.00
2022-10-06T05:08:00.423Z,102722.00
2022-10-06T05:10:27.508Z,102717.00
2022-10-06T05:12:53.897Z,102723.00
2022-10-06T05:15:20.530Z,102716.00
2022-10-06T05:17:47.054Z,102713.00
2022-10-06T05:20:13.575Z,102718.00
2022-10-06T05:22:40.016Z,102716.00
2022-10-06T05:25:06.577Z,102722.00
2022-10-06T05:27:32.978Z,102737.00
2022-10-06T05:29:59.501Z,102735.00
2022-10-06T05:32:25.932Z,102743.00
2022-10-06T05:34:52.360Z,102752.00
2022-10-06T05:37:18.959Z,102755.00
2022-10-06T05:39:46.702Z,102763.00
2022-10-06T05:42:13.144Z,102767.00
2022-10-06T05:44:39.614Z,102774.00
2022-10-06T05:47:06.049Z,102773.00
2022-10-06T05:49:32.441Z,102768.00
2022-10-06T05:51:58.908Z,102761.00
2022-10-06T05:54:25.386Z,102768.00
2022-10-06T05:56:51.801Z,102777.00
2022-10-06T05:59:18.287Z,102777.00
2022-10-06T06:01:44.884Z,102784.00
2022-10-06T06:04:12.347Z,102788.00
2022-10-06T06:06:45.446Z,102783.00
2022-10-06T06:09:13.153Z,102791.00
2022-10-06T06:11:40.702Z,102793.00
2022-10-06T06:14:11.548Z,102794.00
2022-10-06T06:16:39.074Z,102804.00
2022-10-06T06:19:06.426Z,102802.00
2022-10-06T06:21:33.362Z,102807.00
2022-10-06T06:23:59.926Z,102814.00
2022-10-06T06:26:30.772Z,102821.00
2022-10-06T06:29:05.153Z,102826.00
2022-10-06T06:31:33.601Z,102830.00
2022-10-06T06:34:00.547Z,102836.00
2022-10-06T06:36:28.794Z,102833.00
2022-10-06T06:38:56.155Z,102836.00
2022-10-06T06:41:23.885Z,102844.00
2022-10-06T06:43:50.615Z,102841.00
2022-10-06T06:46:18.089Z,102843.00
2022-10-06T06:48:45.026Z,102846.00
2022-10-06T06:51:12.083Z,102855.00
2022-10-06T06:53:38.875Z,102855.00
2022-10-06T06:56:06.044Z,102853.00
2022-10-06T06:58:33.068Z,102857.00
2022-10-06T07:01:06.608Z,102856.00
2022-10-06T07:03:56.197Z,102864.00
2022-10-06T07:06:19.549Z,102868.00
2022-10-06T07:08:46.943Z,102872.00
2022-10-06T07:11:13.437Z,102883.00
2022-10-06T07:13:40.557Z,102882.00
2022-10-06T07:16:25.635Z,102895.00
2022-10-06T07:19:10.364Z,102888.00
2022-10-06T07:21:55.301Z,102885.00
2022-10-06T07:24:40.745Z,102891.00
2022-10-06T07:27:07.241Z,102887.00
2022-10-06T07:29:33.684Z,102899.00
2022-10-06T07:32:00.098Z,102890.00
2022-10-06T07:34:27.000Z,102907.00
2022-10-06T07:36:54.156Z,102910.00
2022-10-06T07:39:20.670Z,102913.00
2022-10-06T07:41:47.134Z,102916.00
2022-10-06T07:44:13.553Z,102922.00
2022-10-06T07:46:39.988Z,102928.00
2022-10-06T07:49:06.430Z,102936.00
2022-10-06T07:51:32.921Z,102927.00
2022-10-06T07:53:59.447Z,102924.00
2022-10-06T07:56:25.912Z,102927.00
2022-10-06T07:58:52.348Z,102923.00
2022-10-06T08:01:19.490Z,102936.00
2022-10-06T08:03:48.475Z,102934.00
2022-10-06T08:06:15.900Z,102943.00
2022-10-06T08:08:43.384Z,102949.00
2022-10-06T08:11:10.942Z,102952.00
2022-10-06T08:13:38.807Z,102951.00
2022-10-06T08:16:05.875Z,102952.00
2022-10-06T08:18:46.019Z,102962.00
2022-10-06T08:21:14.768Z,102966.00
2022-10-06T08:23:42.435Z,102967.00
2022-10-06T08:26:12.460Z,102970.00
2022-10-06T08:28:39.373Z,102972.00
2022-10-06T08:31:07.216Z,102966.00
2022-10-06T08:33:35.975Z,102964.00
2022-10-06T08:36:12.287Z,102983.00
2022-10-06T08:38:38.752Z,102992.00
2022-10-06T08:41:34.388Z,102990.00
2022-10-06T08:44:07.684Z,102989.00
2022-10-06T08:46:41.542Z,102988.00
2022-10-06T08:49:14.306Z,102983.00
2022-10-06T08:51:44.451Z,102997.00
2022-10-06T08:54:12.867Z,102994.00
2022-10-06T08:56:54.433Z,102997.00
2022-10-06T08:59:21.643Z,102998.00
2022-10-06T09:01:49.417Z,102994.00
2022-10-06T09:04:23.195Z,102997.00
2022-10-06T09:07:06.681Z,103000.00
2022-10-06T09:09:39.815Z,103005.00
2022-10-06T09:12:06.863Z,103003.00
2022-10-06T09:14:53.036Z,103001.00
2022-10-06T09:17:26.205Z,103013.00
2022-10-06T09:19:55.098Z,103009.00
2022-10-06T09:22:22.451Z,103015.00
2022-10-06T09:24:51.436Z,103017.00
2022-10-06T09:27:23.149Z,103011.00
2022-10-06T09:29:51.538Z,103021.00
2022-10-06T09:32:19.006Z,103015.00
2022-10-06T09:34:50.117Z,103021.00
2022-10-06T09:37:16.609Z,103023.00
2022-10-06T09:39:44.313Z,103021.00
2022-10-06T09:42:35.810Z,103034.00
2022-10-06T09:45:04.890Z,103027.00
2022-10-06T09:47:35.832Z,103028.00
2022-10-06T09:50:05.960Z,103021.00
2022-10-06T09:52:32.410Z,103023.00
2022-10-06T09:55:19.098Z,103025.00
2022-10-06T09:57:53.278Z,103024.00
2022-10-06T10:00:29.438Z,103025.00
2022-10-06T10:03:01.276Z,103020.00
2022-10-06T10:05:29.416Z,103022.00
2022-10-06T10:08:03.348Z,103026.00
2022-10-06T10:10:30.278Z,103020.00
2022-10-06T10:12:58.065Z,103013.00
2022-10-06T10:15:25.799Z,103017.00
2022-10-06T10:18:12.511Z,103021.00
2022-10-06T10:20:40.236Z,103025.00
2022-10-06T10:23:18.385Z,103028.00
2022-10-06T10:25:50.004Z,103025.00
2022-10-06T10:28:17.478Z,103025.00
2022-10-06T10:30:52.680Z,103028.00
2022-10-06T10:33:26.779Z,103027.00
2022-10-06T10:35:54.195Z,103033.00
2022-10-06T10:38:24.767Z,103030.00
2022-10-06T10:40:54.064Z,103040.00
2022-10-06T10:43:23.347Z,103037.00
2022-10-06T10:45:51.360Z,103030.00
2022-10-06T10:48:36.609Z,103035.00
2022-10-06T10:51:11.362Z,103035.00
2022-10-06T10:53:42.641Z,103040.00
2022-10-06T10:56:11.025Z,103038.00
2022-10-06T10:58:39.403Z,103044.00
2022-10-06T11:01:22.535Z,103036.00
2022-10-06T11:03:56.583Z,103046.00
2022-10-06T11:06:29.819Z,103041.00
2022-10-06T11:08:56.234Z,103045.00
2022-10-06T11:11:38.064Z,103059.00
2022-10-06T11:14:08.749Z,103055.00
2022-10-06T11:16:37.166Z,103049.00
2022-10-06T11:19:15.812Z,103049.00
2022-10-06T11:22:02.455Z,103047.00
2022-10-06T11:24:35.176Z,103042.00
2022-10-06T11:27:05.094Z,103044.00
2022-10-06T11:29:44.820Z,103042.00
2022-10-06T11:32:26.914Z,103040.00
2022-10-06T11:34:53.544Z,103044.00
2022-10-06T11:37:35.068Z,103046.00
2022-10-06T11:40:16.468Z,103052.00
2022-10-06T11:43:01.691Z,103044.00
2022-10-06T11:45:38.210Z,103047.00
2022-10-06T11:48:07.430Z,103045.00
2022-10-06T11:50:33.928Z,103045.00
2022-10-06T11:53:00.724Z,103042.00
2022-10-06T11:55:28.933Z,103035.00
2022-10-06T11:57:58.121Z,103029.00
2022-10-06T12:00:24.480Z,103031.00
2022-10-06T12:02:51.056Z,103032.00
2022-10-06T12:05:54.825Z,103012.00
2022-10-06T12:08:09.457Z,103018.00
2022-10-06T12:10:35.952Z,103013.00
2022-10-06T12:13:51.332Z,103016.00
2022-10-06T12:19:03.859Z,103012.00
2022-10-06T12:21:30.267Z,103013.00
2022-10-06T12:24:06.319Z,103009.00
2022-10-06T12:26:44.701Z,103006.00
2022-10-06T12:29:30.046Z,103003.00
2022-10-06T12:32:14.905Z,103003.00
2022-10-06T12:34:41.923Z,102996.00
2022-10-06T12:37:26.929Z,102990.00
2022-10-06T12:39:53.388Z,102994.00
2022-10-06T12:42:20.473Z,103001.00
2022-10-06T12:44:49.263Z,102984.00
2022-10-06T12:47:19.105Z,102990.00
2022-10-06T12:49:47.283Z,102985.00
2022-10-06T12:52:33.944Z,102983.00
2022-10-06T12:55:19.080Z,102986.00
2022-10-06T12:57:50.748Z,102983.00
2022-10-06T13:00:33.144Z,102985.00
2022-10-06T13:03:01.128Z,102982.00
2022-10-06T13:05:28.107Z,102977.00
2022-10-06T13:08:05.041Z,102983.00
2022-10-06T13:10:32.614Z,102976.00
2022-10-06T13:12:59.796Z,102969.00
2022-10-06T13:15:33.400Z,102976.00
2022-10-06T13:18:04.183Z,102977.00
2022-10-06T13:20:46.202Z,102984.00
2022-10-06T13:23:26.339Z,102965.00
2022-10-06T13:26:16.387Z,102965.00
2022-10-06T13:28:42.826Z,102964.00
2022-10-06T13:31:15.263Z,102967.00
2022-10-06T13:33:43.091Z,102971.00
2022-10-06T13:36:10.909Z,102969.00
2022-10-06T13:38:37.948Z,102964.00
2022-10-06T13:41:04.498Z,102971.00
2022-10-06T13:43:34.159Z,102970.00
2022-10-06T13:46:07.794Z,102969.00
2022-10-06T13:48:34.545Z,102964.00
2022-10-06T13:51:03.375Z,102975.00
2022-10-06T13:53:31.563Z,102967.00
2022-10-06T13:55:58.550Z,102965.00
2022-10-06T13:58:30.036Z,102973.00
2022-10-06T14:01:01.308Z,102971.00
2022-10-06T14:06:18.099Z,102970.00
2022-10-06T14:08:46.338Z,102973.00
2022-10-06T14:11:12.803Z,102976.00
2022-10-06T14:13:53.895Z,102978.00
2022-10-06T14:16:21.936Z,102962.00
2022-10-06T14:18:58.385Z,102962.00
2022-10-06T14:21:37.146Z,102969.00
2022-10-06T14:24:15.927Z,102968.00
2022-10-06T14:26:46.494Z,102971.00
2022-10-06T14:29:14.185Z,102966.00
2022-10-06T14:31:40.780Z,102969.00
2022-10-06T14:34:14.372Z,102962.00
2022-10-06T14:36:41.962Z,102960.00
2022-10-06T14:39:10.830Z,102954.00
2022-10-06T14:41:37.285Z,102960.00
2022-10-06T14:44:09.104Z,102957.00
2022-10-06T14:46:35.987Z,102955.00
2022-10-06T14:49:07.585Z,102955.00
2022-10-06T14:51:36.543Z,102953.00
2022-10-06T14:54:03.792Z,102959.00
2022-10-06T14:56:31.642Z,102954.00
2022-10-06T14:59:04.239Z,102951.00
2022-10-06T15:01:31.474Z,102946.00
2022-10-06T15:03:58.924Z,102938.00
2022-10-06T15:06:44.225Z,102936.00
2022-10-06T15:09:11.085Z,102941.00
2022-10-06T15:11:39.601Z,102945.00
2022-10-06T15:14:06.426Z,102931.00
2022-10-06T15:16:33.761Z,102935.00
2022-10-06T15:19:00.746Z,102926.00
2022-10-06T15:21:27.562Z,102924.00
2022-10-06T15:23:57.729Z,102927.00
2022-10-06T15:26:43.207Z,102922.00
2022-10-06T15:29:09.748Z,102921.00
2022-10-06T15:31:40.282Z,102923.00
2022-10-06T15:34:07.959Z,102918.00
2022-10-06T15:36:36.372Z,102915.00
2022-10-06T15:39:13.263Z,102915.00
2022-10-06T15:41:42.857Z,102910.00
2022-10-06T15:44:09.846Z,102910.00
2022-10-06T15:46:40.871Z,102901.00
2022-10-06T15:49:08.993Z,102913.00
2022-10-06T15:51:42.776Z,102910.00
2022-10-06T15:54:10.949Z,102906.00
2022-10-06T15:56:38.187Z,102908.00
2022-10-06T15:59:05.192Z,102908.00
2022-10-06T16:01:34.757Z,102909.00
2022-10-06T16:04:08.340Z,102915.00
2022-10-06T16:06:49.340Z,102910.00
2022-10-06T16:09:19.055Z,102910.00
2022-10-06T16:11:47.016Z,102905.00
2022-10-06T16:14:14.082Z,102910.00
2022-10-06T16:16:43.672Z,102903.00
2022-10-06T16:19:10.863Z,102908.00
2022-10-06T16:21:37.758Z,102905.00
2022-10-06T16:24:04.275Z,102907.00
2022-10-06T16:26:31.071Z,102909.00
2022-10-06T16:28:57.496Z,102904.00
2022-10-06T16:31:24.052Z,102906.00
2022-10-06T16:33:50.682Z,102906.00
2022-10-06T16:36:17.739Z,102904.00
2022-10-06T16:38:44.247Z,102903.00
2022-10-06T16:41:10.866Z,102897.00
2022-10-06T16:43:38.543Z,102904.00
2022-10-06T16:46:06.435Z,102902.00
2022-10-06T16:48:34.630Z,102908.00
2022-10-06T16:51:03.978Z,102902.00
2022-10-06T16:53:34.124Z,102905.00
2022-10-06T16:56:00.620Z,102903.00
2022-10-06T16:58:27.079Z,102901.00
2022-10-06T17:00:57.146Z,102908.00
2022-10-06T17:03:23.643Z,102904.00
2022-10-06T17:05:50.142Z,102899.00
2022-10-06T17:08:16.617Z,102890.00
2022-10-06T17:10:43.111Z,102891.00
2022-10-06T17:13:09.570Z,102902.00
2022-10-06T17:15:36.097Z,102900.00
2022-10-06T17:18:02.561Z,102902.00
2022-10-06T17:20:29.024Z,102898.00
2022-10-06T17:22:55.452Z,102895.00
2022-10-06T17:25:22.314Z,102899.00
2022-10-06T17:27:48.772Z,102899.00
2022-10-06T17:30:16.838Z,102899.00
2022-10-06T17:32:44.560Z,102899.00
2022-10-06T17:35:10.963Z,102895.00
2022-10-06T17:37:40.297Z,102882.00
2022-10-06T17:40:08.320Z,102901.00
2022-10-06T17:42:35.655Z,102905.00
2022-10-06T17:45:02.241Z,102906.00
2022-10-06T17:47:29.635Z,102906.00
2022-10-06T17:49:57.008Z,102903.00
2022-10-06T17:52:24.476Z,102902.00
2022-10-06T17:54:52.062Z,102906.00
2022-10-06T17:57:19.810Z,102905.00
2022-10-06T17:59:46.248Z,102901.00
2022-10-06T18:02:13.685Z,102907.00
2022-10-06T18:04:40.309Z,102899.00
2022-10-06T18:07:10.111Z,102903.00
2022-10-06T18:09:36.652Z,102904.00
2022-10-06T18:12:03.256Z,102898.00
2022-10-06T18:14:33.351Z,102903.00
2022-10-06T18:17:01.059Z,102895.00
2022-10-06T18:19:29.988Z,102886.00
2022-10-06T18:22:01.771Z,102886.00
2022-10-06T18:24:29.651Z,102896.00
2022-10-06T18:26:56.761Z,102898.00
2022-10-06T18:29:24.575Z,102891.00
2022-10-06T18:31:52.041Z,102899.00
2022-10-06T18:36:10.371Z,102896.00
2022-10-06T18:37:05.126Z,102895.00
2022-10-06T18:39:33.447Z,102887.00
2022-10-06T18:42:02.930Z,102883.00
2022-10-06T18:44:48.370Z,102888.00
2022-10-06T18:47:33.672Z,102885.00
2022-10-06T18:50:00.148Z,102891.00
2022-10-06T18:52:26.579Z,102883.00
2022-10-06T18:54:53.029Z,102884.00
2022-10-06T18:57:22.609Z,102885.00
2022-10-06T18:59:51.752Z,102883.00
2022-10-06T19:02:18.310Z,102884.00
2022-10-06T19:04:44.813Z,102886.00
2022-10-06T19:07:11.245Z,102879.00
2022-10-06T19:09:38.441Z,102879.00
2022-10-06T19:12:07.080Z,102881.00
2022-10-06T19:14:42.831Z,102884.00
2022-10-06T19:17:13.094Z,102886.00
2022-10-06T19:19:39.953Z,102890.00
2022-10-06T19:22:06.795Z,102881.00
2022-10-06T19:24:35.092Z,102883.00
2022-10-06T19:27:05.045Z,102885.00
2022-10-06T19:29:36.914Z,102885.00
2022-10-06T19:32:04.657Z,102883.00
2022-10-06T19:34:32.763Z,102895.00
2022-10-06T19:36:59.657Z,102884.00
2022-10-06T19:39:28.111Z,102899.00
2022-10-06T19:42:13.226Z,102883.00
2022-10-06T19:44:43.025Z,102887.00
2022-10-06T19:47:11.221Z,102883.00
2022-10-06T19:49:38.267Z,102883.00
2022-10-06T19:52:06.218Z,102882.00
2022-10-06T19:54:32.740Z,102887.00
2022-10-06T19:57:03.096Z,102890.00
2022-10-06T19:59:31.842Z,102886.00
2022-10-06T20:01:58.280Z,102895.00
2022-10-06T20:04:25.467Z,102898.00
2022-10-06T20:06:52.264Z,102891.00
2022-10-06T20:09:20.091Z,102896.00
2022-10-06T20:11:48.207Z,102885.00
2022-10-06T20:14:20.948Z,102898.00
2022-10-06T20:16:49.191Z,102890.00
2022-10-06T20:19:19.512Z,102899.00
2022-10-06T20:21:46.493Z,102896.00
2022-10-06T20:24:31.849Z,102887.00
2022-10-06T20:26:58.313Z,102886.00
2022-10-06T20:29:25.891Z,102885.00
2022-10-06T20:31:53.831Z,102885.00
2022-10-06T20:34:21.558Z,102874.00
2022-10-06T20:36:51.877Z,102879.00
2022-10-06T20:39:40.526Z,102887.00
2022-10-06T20:42:10.721Z,102879.00
2022-10-06T20:44:41.288Z,102885.00
2022-10-06T20:47:08.943Z,102885.00
2022-10-06T20:49:35.437Z,102878.00
2022-10-06T20:52:03.228Z,102882.00
2022-10-06T20:54:35.016Z,102883.00
2022-10-06T20:57:02.901Z,102878.00
2022-10-06T20:59:30.040Z,102875.00
2022-10-06T21:02:00.343Z,102871.00
2022-10-06T21:04:30.236Z,102864.00
2022-10-06T21:06:57.250Z,102866.00
2022-10-06T21:09:24.525Z,102862.00
2022-10-06T21:11:51.089Z,102864.00
2022-10-06T21:14:18.259Z,102863.00
2022-10-06T21:16:45.376Z,102869.00
2022-10-06T21:19:14.173Z,102859.00
2022-10-06T21:21:41.152Z,102860.00
2022-10-06T21:24:10.298Z,102859.00
2022-10-06T21:26:38.697Z,102850.00
2022-10-06T21:29:05.144Z,102855.00
2022-10-06T21:31:32.175Z,102853.00
2022-10-06T21:33:59.244Z,102852.00
2022-10-06T21:36:26.492Z,102848.00
2022-10-06T21:38:56.850Z,102840.00
2022-10-06T21:41:31.873Z,102839.00
2022-10-06T21:44:04.557Z,102842.00
2022-10-06T21:46:32.753Z,102836.00
2022-10-06T21:48:59.734Z,102837.00
2022-10-06T21:51:27.545Z,102841.00
2022-10-06T21:53:56.052Z,102842.00
2022-10-06T21:56:23.014Z,102834.00
2022-10-06T21:58:52.981Z,102830.00
2022-10-06T22:01:21.290Z,102824.00
2022-10-06T22:03:48.383Z,102824.00
2022-10-06T22:06:19.058Z,102828.00
2022-10-06T22:08:46.112Z,102822.00
2022-10-06T22:11:14.149Z,102819.00
2022-10-06T22:13:41.279Z,102819.00
2022-10-06T22:16:09.141Z,102816.00
2022-10-06T22:18:36.513Z,102817.00
2022-10-06T22:21:32.428Z,102817.00
2022-10-06T22:23:59.949Z,102815.00
2022-10-06T22:26:27.046Z,102804.00
2022-10-06T22:28:54.277Z,102809.00
2022-10-06T22:31:25.701Z,102799.00
2022-10-06T22:33:57.082Z,102805.00
2022-10-06T22:36:23.854Z,102798.00
2022-10-06T22:38:50.414Z,102799.00
2022-10-06T22:41:17.056Z,102794.00
2022-10-06T22:43:43.515Z,102789.00
2022-10-06T22:46:10.603Z,102794.00
2022-10-06T22:48:37.213Z,102789.00
2022-10-06T22:51:03.743Z,102790.00
2022-10-06T22:53:31.278Z,102775.00
2022-10-06T22:55:58.344Z,102777.00
2022-10-06T22:58:24.907Z,102780.00
2022-10-06T23:00:51.481Z,102776.00
2022-10-06T23:03:18.415Z,102778.00
2022-10-06T23:05:57.844Z,102777.00
2022-10-06T23:08:24.780Z,102780.00
2022-10-06T23:10:51.364Z,102776.00
2022-10-06T23:13:17.930Z,102781.00
2022-10-06T23:15:44.418Z,102773.00
2022-10-06T23:18:10.916Z,102764.00
2022-10-06T23:20:37.333Z,102763.00
2022-10-06T23:23:03.827Z,102752.00
2022-10-06T23:25:30.276Z,102746.00
2022-10-06T23:27:56.770Z,102751.00
2022-10-06T23:30:23.242Z,102747.00
2022-10-06T23:32:49.670Z,102746.00
2022-10-06T23:35:16.120Z,102736.00
2022-10-06T23:37:42.727Z,102733.00
2022-10-06T23:40:09.676Z,102734.00
2022-10-06T23:42:36.092Z,102730.00
2022-10-06T23:45:02.562Z,102734.00
2022-10-06T23:47:28.966Z,102728.00
2022-10-06T23:49:55.384Z,102720.00
2022-10-06T23:52:21.822Z,102719.00
2022-10-06T23:54:48.677Z,102717.00
2022-10-06T23:57:15.143Z,102719.00
2022-10-06T23:59:41.528Z,102722.00
